createdAt,value
2023-04-15T00:01:37.465Z,85.92
2023-04-15T00:06:42.527Z,86.46
2023-04-15T00:11:44.784Z,86.06
2023-04-15T00:16:47.673Z,87.06
2023-04-15T00:21:50.067Z,86.67
2023-04-15T00:26:52.461Z,86.61
2023-04-15T00:31:55.945Z,85.58
2023-04-15T00:36:58.826Z,85.51
2023-04-15T00:42:01.345Z,86.09
2023-04-15T00:47:05.607Z,86.07
2023-04-15T00:52:09.256Z,86.56
2023-04-15T00:57:13.613Z,86.30
2023-04-15T01:02:17.055Z,86.33
2023-04-15T01:07:20.430Z,86.41
2023-04-15T01:12:24.901Z,87.43
2023-04-15T01:17:27.476Z,86.91
2023-04-15T01:22:31.346Z,86.85
2023-04-15T01:27:36.028Z,86.80
2023-04-15T01:32:40.311Z,87.69
2023-04-15T01:38:09.515Z,88.04
2023-04-15T01:43:13.814Z,87.76
2023-04-15T01:48:19.337Z,88.03
2023-04-15T01:53:22.933Z,89.16
2023-04-15T01:58:26.435Z,88.13
2023-04-15T02:03:30.433Z,88.01
2023-04-15T02:08:34.470Z,87.73
2023-04-15T02:13:39.388Z,87.57
2023-04-15T02:18:45.291Z,86.43
2023-04-15T02:23:48.957Z,87.68
2023-04-15T02:28:52.551Z,88.16
2023-04-15T02:33:56.214Z,87.74
2023-04-15T02:39:00.273Z,87.52
2023-04-15T02:44:08.035Z,87.46
2023-04-15T02:49:12.648Z,86.62
2023-04-15T02:54:18.027Z,85.27
2023-04-15T02:59:21.812Z,85.65
2023-04-15T03:04:26.711Z,85.38
2023-04-15T03:09:32.017Z,85.77
2023-04-15T03:14:38.142Z,86.30
2023-04-15T03:19:42.472Z,86.13
2023-04-15T03:24:46.332Z,85.52
2023-04-15T03:29:50.072Z,85.98
2023-04-15T03:34:55.077Z,85.43
2023-04-15T03:39:58.582Z,85.01
2023-04-15T03:45:02.272Z,86.30
2023-04-15T03:50:07.527Z,85.26
2023-04-15T03:55:11.799Z,84.83
2023-04-15T04:00:15.854Z,85.55
2023-04-15T04:05:21.101Z,85.91
2023-04-15T04:10:24.597Z,85.57
2023-04-15T04:15:29.391Z,84.21
2023-04-15T04:20:33.455Z,86.07
2023-04-15T04:25:37.802Z,85.41
2023-04-15T04:30:43.386Z,84.13
2023-04-15T04:35:47.054Z,84.81
2023-04-15T04:40:51.234Z,84.15
2023-04-15T04:45:54.765Z,84.51
2023-04-15T04:50:58.422Z,83.61
2023-04-15T04:56:02.530Z,81.03
2023-04-15T05:01:06.547Z,83.16
2023-04-15T05:06:10.919Z,80.83
2023-04-15T05:11:15.640Z,75.55
2023-04-15T05:16:20.925Z,80.22
2023-04-15T05:21:24.802Z,78.63
2023-04-15T05:26:28.497Z,76.69
2023-04-15T05:31:32.109Z,73.85
2023-04-15T05:36:37.564Z,75.76
2023-04-15T05:41:43.598Z,73.93
2023-04-15T05:46:47.376Z,70.79
2023-04-15T05:51:51.666Z,70.74
2023-04-15T05:56:55.274Z,73.17
2023-04-15T06:02:00.017Z,75.83
2023-04-15T06:07:03.523Z,71.92
2023-04-15T06:12:12.375Z,70.52
2023-04-15T06:17:20.081Z,69.56
2023-04-15T06:22:24.115Z,75.61
2023-04-15T06:27:28.321Z,75.02
2023-04-15T06:32:34.614Z,70.10
2023-04-15T06:37:38.613Z,72.47
2023-04-15T06:42:42.750Z,74.98
2023-04-15T06:47:46.885Z,72.29
2023-04-15T06:52:50.450Z,70.76
2023-04-15T06:57:53.939Z,76.13
2023-04-15T07:02:57.405Z,70.92
2023-04-15T07:08:01.338Z,74.24
2023-04-15T07:13:05.930Z,68.17
2023-04-15T07:18:10.065Z,70.29
2023-04-15T07:23:14.229Z,71.97
2023-04-15T07:28:18.926Z,73.86
2023-04-15T07:33:25.110Z,72.22
2023-04-15T07:38:29.203Z,75.97
2023-04-15T07:43:32.988Z,72.77
2023-04-15T07:48:37.571Z,71.36
2023-04-15T07:53:41.937Z,70.00
2023-04-15T07:58:48.181Z,71.64
2023-04-15T08:03:52.921Z,72.93
2023-04-15T08:08:57.215Z,68.93
2023-04-15T08:14:02.163Z,65.17
2023-04-15T08:19:05.871Z,73.20
2023-04-15T08:24:10.581Z,69.99
2023-04-15T08:29:14.654Z,69.69
2023-04-15T08:34:18.512Z,71.37
2023-04-15T08:39:22.519Z,68.04
2023-04-15T08:44:29.280Z,69.84
2023-04-15T08:49:33.257Z,61.51
2023-04-15T08:54:37.801Z,68.42
2023-04-15T08:59:43.111Z,64.17
2023-04-15T09:04:46.643Z,70.04
2023-04-15T09:09:50.805Z,64.51
2023-04-15T09:14:55.715Z,71.62
2023-04-15T09:20:14.857Z,61.56
2023-04-15T09:25:25.120Z,67.78
2023-04-15T09:30:31.473Z,70.93
2023-04-15T09:35:36.531Z,64.05
2023-04-15T09:40:42.886Z,69.68
2023-04-15T09:45:52.136Z,69.30
2023-04-15T09:50:59.074Z,65.23
2023-04-15T09:56:03.392Z,66.90
2023-04-15T10:01:09.956Z,63.29
2023-04-15T10:06:15.909Z,61.56
2023-04-15T10:11:20.412Z,62.24
2023-04-15T10:16:28.058Z,67.17
2023-04-15T10:21:32.438Z,65.31
2023-04-15T10:26:36.589Z,62.25
2023-04-15T10:31:42.495Z,63.06
2023-04-15T10:36:47.327Z,60.34
2023-04-15T10:42:07.864Z,58.47
2023-04-15T10:47:22.067Z,58.30
2023-04-15T10:52:27.867Z,67.98
2023-04-15T10:57:42.354Z,61.96
2023-04-15T11:02:55.029Z,61.46
2023-04-15T11:08:02.302Z,58.73
2023-04-15T11:13:16.880Z,58.45
2023-04-15T11:18:26.000Z,63.37
2023-04-15T11:23:47.601Z,57.93
2023-04-15T11:28:51.916Z,66.80
2023-04-15T11:34:01.812Z,65.63
2023-04-15T11:39:08.004Z,62.13
2023-04-15T11:44:18.929Z,60.26
2023-04-15T11:49:31.446Z,60.34
2023-04-15T11:54:33.828Z,59.68
2023-04-15T11:59:45.501Z,61.61
2023-04-15T12:04:49.487Z,61.70
2023-04-15T12:09:58.466Z,60.27
2023-04-15T12:15:02.101Z,54.35
2023-04-15T12:20:08.118Z,55.52
2023-04-15T12:25:10.581Z,53.30
2023-04-15T12:30:13.687Z,58.68
2023-04-15T12:35:16.125Z,55.77
2023-04-15T12:40:20.415Z,56.46
2023-04-15T12:45:23.828Z,51.77
2023-04-15T12:50:26.626Z,55.01
2023-04-15T12:55:28.977Z,51.80
2023-04-15T13:00:35.020Z,55.33
2023-04-15T13:05:39.440Z,52.15
2023-04-15T13:10:42.788Z,50.99
2023-04-15T13:15:46.241Z,53.16
2023-04-15T13:20:49.791Z,53.26
2023-04-15T13:25:52.655Z,50.02
2023-04-15T13:30:57.329Z,58.22
2023-04-15T13:36:00.094Z,53.79
2023-04-15T13:41:03.662Z,56.14
2023-04-15T13:46:06.592Z,57.01
2023-04-15T13:51:09.574Z,57.49
2023-04-15T13:56:12.114Z,54.40
2023-04-15T14:01:15.515Z,51.73
2023-04-15T14:06:18.528Z,55.45
2023-04-15T14:11:21.422Z,53.77
2023-04-15T14:16:24.381Z,56.35
2023-04-15T14:21:28.110Z,53.28
2023-04-15T14:26:30.569Z,51.00
2023-04-15T14:31:34.966Z,52.05
2023-04-15T14:36:37.489Z,53.78
2023-04-15T14:41:40.417Z,52.53
2023-04-15T14:46:42.857Z,57.53
2023-04-15T14:51:47.157Z,58.63
2023-04-15T14:56:50.115Z,59.74
2023-04-15T15:01:53.683Z,55.42
2023-04-15T15:06:56.271Z,53.96
2023-04-15T15:11:59.080Z,48.14
2023-04-15T15:17:01.906Z,51.34
2023-04-15T15:22:04.771Z,47.13
2023-04-15T15:27:07.135Z,49.06
2023-04-15T15:32:10.108Z,51.87
2023-04-15T15:37:13.578Z,47.01
2023-04-15T15:42:16.687Z,47.57
2023-04-15T15:47:21.471Z,47.83
2023-04-15T15:52:23.945Z,49.07
2023-04-15T15:57:26.216Z,46.45
2023-04-15T16:02:52.410Z,46.26
2023-04-15T16:07:51.275Z,43.76
2023-04-15T16:12:54.352Z,47.48
2023-04-15T16:17:56.796Z,44.91
2023-04-15T16:22:59.585Z,45.61
2023-04-15T16:28:11.566Z,46.09
2023-04-15T16:33:21.706Z,44.62
2023-04-15T16:38:24.917Z,46.55
2023-04-15T16:43:28.552Z,45.28
2023-04-15T16:48:31.175Z,46.43
2023-04-15T16:53:33.603Z,45.39
2023-04-15T16:58:35.875Z,44.32
2023-04-15T17:03:40.914Z,45.45
2023-04-15T17:08:44.669Z,45.12
2023-04-15T17:13:47.440Z,45.93
2023-04-15T17:18:51.255Z,44.76
2023-04-15T17:24:05.274Z,45.60
2023-04-15T17:29:17.244Z,45.34
2023-04-15T17:34:25.689Z,45.02
2023-04-15T17:40:09.083Z,45.70
2023-04-15T17:45:31.906Z,44.93
2023-04-15T17:50:54.496Z,43.21
2023-04-15T17:56:16.952Z,42.92
2023-04-15T18:01:39.397Z,43.88
2023-04-15T18:07:02.504Z,43.59
2023-04-15T18:12:24.880Z,42.05
2023-04-15T18:17:48.547Z,42.24
2023-04-15T18:22:52.274Z,43.72
2023-04-15T18:27:55.581Z,42.52
2023-04-15T18:32:58.575Z,41.86
2023-04-15T18:38:01.525Z,42.50
2023-04-15T18:43:04.849Z,42.54
2023-04-15T18:48:07.538Z,42.06
2023-04-15T18:53:10.448Z,42.30
2023-04-15T18:58:13.234Z,42.84
2023-04-15T19:03:15.922Z,42.76
2023-04-15T19:08:18.887Z,42.20
2023-04-15T19:13:22.910Z,43.99
2023-04-15T19:18:26.605Z,43.00
2023-04-15T19:23:30.871Z,42.94
2023-04-15T19:28:33.347Z,43.15
2023-04-15T19:33:35.934Z,43.01
2023-04-15T19:38:38.357Z,42.89
2023-04-15T19:43:40.803Z,42.30
2023-04-15T19:48:43.383Z,42.85
2023-04-15T19:53:45.962Z,43.22
2023-04-15T19:58:52.932Z,43.04
2023-04-15T20:03:56.032Z,44.19
2023-04-15T20:08:58.730Z,43.57
2023-04-15T20:14:01.574Z,43.05
2023-04-15T20:19:09.274Z,43.51
2023-04-15T20:24:11.955Z,43.76
2023-04-15T20:29:14.794Z,43.77
2023-04-15T20:34:17.202Z,44.24
2023-04-15T20:39:20.215Z,44.94
2023-04-15T20:44:24.553Z,43.94
2023-04-15T20:49:27.538Z,44.44
2023-04-15T20:54:32.125Z,44.50
2023-04-15T20:59:35.178Z,44.02
2023-04-15T21:04:41.251Z,44.27
2023-04-15T21:09:44.172Z,44.75
2023-04-15T21:14:46.555Z,44.89
2023-04-15T21:19:49.610Z,44.64
2023-04-15T21:24:52.488Z,44.93
2023-04-15T21:29:56.039Z,45.11
2023-04-15T21:34:58.523Z,46.71
2023-04-15T21:40:01.688Z,46.58
2023-04-15T21:45:06.714Z,46.79
2023-04-15T21:50:10.897Z,46.93
2023-04-15T21:55:13.443Z,46.79
2023-04-15T22:00:17.649Z,48.06
2023-04-15T22:05:20.561Z,47.25
2023-04-15T22:10:23.641Z,47.15
2023-04-15T22:15:26.689Z,47.90
2023-04-15T22:20:29.620Z,48.47
2023-04-15T22:25:33.232Z,48.51
2023-04-15T22:30:40.528Z,49.16
2023-04-15T22:35:43.954Z,49.14
2023-04-15T22:40:47.144Z,49.95
2023-04-15T22:45:51.557Z,49.52
2023-04-15T22:50:54.088Z,49.38
2023-04-15T22:55:56.402Z,49.70
2023-04-15T23:00:59.291Z,49.75
2023-04-15T23:06:02.261Z,49.58
2023-04-15T23:11:05.932Z,49.59
2023-04-15T23:16:08.249Z,50.43
2023-04-15T23:21:10.679Z,50.86
2023-04-15T23:26:13.595Z,50.63
2023-04-15T23:31:16.733Z,50.46
2023-04-15T23:36:19.622Z,52.29
2023-04-15T23:41:23.137Z,52.84
2023-04-15T23:46:27.462Z,54.49
2023-04-15T23:51:30.523Z,56.00
2023-04-15T23:56:33.382Z,56.80
